Potter Junction, Arkansas
Current Conditions -  °F | °C
As of 12:15 AM on Thursday 29 Jan 2015 (Local Time) from KMEZ Reporting Station
Scattered Clouds Scattered Clouds  
Wind Chill: 64°   Ceiling: Unl
Heat Index: 64°   Visibility: 10mi
Dew Point: 45°   Wind: 3mph
Humidity: 49%   Direction: 220°SW
Pressure: 30.04"   Gusts: NA
Location:  34.592°N, 94.1901°W
Report Text: KMEZ 290615Z AUTO 22003KT 10SM SCT100 18/07 A3004 RMK AO2
Loading
Personal Weather Stations






























Interactive Weather Map New forecast layout! Learn more

10-Day Weather Forecast

Advertisements
Track Severe Weather on mobile